createdAt,value
2019-03-30T00:02:59.062Z,66.58
2019-03-30T00:06:00.945Z,66.31
2019-03-30T00:09:06.976Z,66.52
2019-03-30T00:12:09.296Z,66.66
2019-03-30T00:15:11.181Z,67.46
2019-03-30T00:18:13.108Z,67.76
2019-03-30T00:21:14.992Z,67.93
2019-03-30T00:24:16.907Z,67.12
2019-03-30T00:27:18.896Z,67.26
2019-03-30T00:30:20.840Z,67.67
2019-03-30T00:33:22.694Z,68.06
2019-03-30T00:36:24.645Z,68.06
2019-03-30T00:39:26.535Z,67.80
2019-03-30T00:42:28.503Z,68.00
2019-03-30T00:45:30.546Z,67.70
2019-03-30T00:48:32.516Z,67.70
2019-03-30T00:51:34.351Z,67.90
2019-03-30T00:54:36.321Z,67.66
2019-03-30T00:57:38.271Z,67.63
2019-03-30T01:00:40.227Z,67.42
2019-03-30T01:03:42.117Z,67.09
2019-03-30T01:06:44.124Z,67.30
2019-03-30T01:09:46.025Z,67.58
2019-03-30T01:12:47.981Z,67.49
2019-03-30T01:15:49.861Z,67.41
2019-03-30T01:18:51.862Z,67.10
2019-03-30T01:21:56.185Z,67.59
2019-03-30T01:24:57.712Z,68.01
2019-03-30T01:27:59.745Z,68.27
2019-03-30T01:31:01.711Z,68.37
2019-03-30T01:34:03.581Z,68.40
2019-03-30T01:37:05.550Z,68.36
2019-03-30T01:40:08.066Z,68.25
2019-03-30T01:43:10.014Z,68.18
2019-03-30T01:46:12.818Z,68.45
2019-03-30T01:49:14.781Z,68.41
2019-03-30T01:52:16.706Z,68.48
2019-03-30T01:55:18.711Z,68.60
2019-03-30T01:58:20.768Z,68.67
2019-03-30T02:01:22.727Z,68.65
2019-03-30T02:04:24.588Z,68.42
2019-03-30T02:07:26.516Z,68.40
2019-03-30T02:10:43.224Z,68.12
2019-03-30T02:13:45.167Z,67.99
2019-03-30T02:16:47.060Z,67.99
2019-03-30T02:19:49.066Z,67.98
2019-03-30T02:22:50.987Z,68.09
2019-03-30T02:25:52.946Z,68.46
2019-03-30T02:28:54.935Z,68.63
2019-03-30T02:31:56.858Z,68.65
2019-03-30T02:34:58.747Z,68.48
2019-03-30T02:38:00.683Z,68.30
2019-03-30T02:41:02.664Z,68.18
2019-03-30T02:44:04.586Z,68.10
2019-03-30T02:47:06.976Z,68.10
2019-03-30T02:50:08.912Z,68.06
2019-03-30T02:53:10.752Z,68.10
2019-03-30T02:56:12.723Z,68.43
2019-03-30T02:59:14.663Z,68.53
2019-03-30T03:02:16.605Z,68.70
2019-03-30T03:05:18.459Z,69.00
2019-03-30T03:08:20.385Z,69.01
2019-03-30T03:11:22.285Z,68.94
2019-03-30T03:14:24.261Z,68.83
2019-03-30T03:17:26.182Z,69.30
2019-03-30T03:20:28.108Z,69.43
2019-03-30T03:23:29.985Z,69.65
2019-03-30T03:26:31.901Z,69.61
2019-03-30T03:29:34.029Z,69.33
2019-03-30T03:32:35.988Z,69.29
2019-03-30T03:35:37.864Z,69.21
2019-03-30T03:38:39.784Z,69.05
2019-03-30T03:41:41.672Z,69.15
2019-03-30T03:44:43.635Z,69.74
2019-03-30T03:47:45.679Z,70.14
2019-03-30T03:50:51.237Z,69.88
2019-03-30T03:53:53.335Z,70.09
2019-03-30T03:56:56.723Z,69.70
2019-03-30T04:00:01.718Z,69.33
2019-03-30T04:03:03.794Z,69.69
2019-03-30T04:06:05.779Z,69.75
2019-03-30T04:09:07.718Z,69.73
2019-03-30T04:12:11.986Z,70.11
2019-03-30T04:15:24.947Z,70.57
2019-03-30T04:18:26.867Z,71.02
2019-03-30T04:21:42.892Z,71.24
2019-03-30T04:24:32.582Z,70.94
2019-03-30T04:27:34.496Z,70.86
2019-03-30T04:30:36.504Z,70.78
2019-03-30T04:33:38.525Z,70.52
2019-03-30T04:36:40.415Z,70.11
2019-03-30T04:39:42.427Z,69.76
2019-03-30T04:42:44.268Z,69.77
2019-03-30T04:45:46.161Z,69.68
2019-03-30T04:48:48.614Z,69.45
2019-03-30T04:51:57.365Z,69.89
2019-03-30T04:54:54.434Z,70.11
2019-03-30T04:57:57.850Z,69.58
2019-03-30T05:01:00.183Z,69.14
2019-03-30T05:04:02.101Z,68.64
2019-03-30T05:07:03.976Z,68.56
2019-03-30T05:10:06.513Z,67.95
2019-03-30T05:13:08.380Z,66.34
2019-03-30T05:16:10.300Z,65.27
2019-03-30T05:19:12.184Z,63.56
2019-03-30T05:22:16.611Z,62.87
2019-03-30T05:25:17.902Z,60.61
2019-03-30T05:28:19.817Z,58.90
2019-03-30T05:31:21.900Z,55.66
2019-03-30T05:34:23.815Z,55.63
2019-03-30T05:37:25.686Z,54.88
2019-03-30T05:40:27.586Z,53.80
2019-03-30T05:43:29.428Z,52.63
2019-03-30T05:46:31.387Z,52.58
2019-03-30T05:49:33.342Z,52.88
2019-03-30T05:52:35.809Z,50.71
2019-03-30T05:55:37.916Z,49.06
2019-03-30T05:58:39.820Z,48.49
2019-03-30T06:01:41.755Z,48.13
2019-03-30T06:04:43.749Z,48.47
2019-03-30T06:07:45.634Z,46.44
2019-03-30T06:10:47.551Z,46.94
2019-03-30T06:13:49.412Z,44.52
2019-03-30T06:16:52.167Z,45.79
2019-03-30T06:19:54.207Z,45.20
2019-03-30T06:22:56.230Z,44.28
2019-03-30T06:25:59.590Z,43.70
2019-03-30T06:29:01.520Z,44.02
2019-03-30T06:32:03.663Z,43.71
2019-03-30T06:35:05.769Z,43.00
2019-03-30T06:38:07.665Z,42.04
2019-03-30T06:41:09.628Z,41.91
2019-03-30T06:44:11.550Z,41.63
2019-03-30T06:47:13.505Z,40.61
2019-03-30T06:50:16.313Z,41.03
2019-03-30T06:53:18.434Z,39.79
2019-03-30T06:56:20.466Z,39.02
2019-03-30T06:59:22.553Z,38.77
2019-03-30T07:02:25.317Z,38.72
2019-03-30T07:05:27.339Z,37.75
2019-03-30T07:08:31.508Z,38.30
2019-03-30T07:11:37.067Z,38.81
2019-03-30T07:14:40.976Z,38.40
2019-03-30T07:17:47.018Z,37.07
2019-03-30T07:20:48.916Z,35.73
2019-03-30T07:23:50.918Z,35.80
2019-03-30T07:26:52.946Z,35.44
2019-03-30T07:29:55.014Z,34.62
2019-03-30T07:32:57.085Z,34.41
2019-03-30T07:35:59.122Z,34.29
2019-03-30T07:39:01.187Z,33.86
2019-03-30T07:42:03.124Z,33.90
2019-03-30T07:45:05.734Z,32.92
2019-03-30T07:48:07.669Z,33.73
2019-03-30T07:51:09.805Z,32.70
2019-03-30T07:54:12.150Z,33.74
2019-03-30T07:57:17.080Z,34.22
2019-03-30T08:00:18.661Z,33.76
2019-03-30T08:03:20.651Z,33.74
2019-03-30T08:06:22.719Z,33.64
2019-03-30T08:09:24.646Z,33.92
2019-03-30T08:12:27.103Z,33.44
2019-03-30T08:15:29.055Z,34.50
2019-03-30T08:18:31.144Z,35.42
2019-03-30T08:21:33.776Z,35.81
2019-03-30T08:24:36.229Z,36.57
2019-03-30T08:27:38.484Z,36.54
2019-03-30T08:30:40.460Z,36.65
2019-03-30T08:33:42.966Z,36.14
2019-03-30T08:36:44.917Z,37.11
2019-03-30T08:39:46.891Z,37.90
2019-03-30T08:42:50.002Z,38.53
2019-03-30T08:45:51.912Z,37.80
2019-03-30T08:48:54.277Z,38.13
2019-03-30T08:51:56.196Z,38.19
2019-03-30T08:54:58.158Z,38.82
2019-03-30T08:58:00.430Z,38.43
2019-03-30T09:01:02.404Z,38.19
2019-03-30T09:04:04.407Z,38.01
2019-03-30T09:07:06.375Z,37.94
2019-03-30T09:10:08.465Z,39.58
2019-03-30T09:13:10.601Z,38.29
2019-03-30T09:16:12.498Z,38.90
2019-03-30T09:19:14.531Z,38.92
2019-03-30T09:22:16.445Z,38.46
2019-03-30T09:25:18.768Z,38.40
2019-03-30T09:28:20.804Z,38.78
2019-03-30T09:31:23.010Z,36.95
2019-03-30T09:34:25.048Z,37.21
2019-03-30T09:37:26.951Z,36.55
2019-03-30T09:40:28.882Z,35.92
2019-03-30T09:43:30.845Z,36.25
2019-03-30T09:46:32.735Z,36.32
2019-03-30T09:49:37.492Z,36.93
2019-03-30T09:52:39.438Z,37.38
2019-03-30T09:55:42.636Z,37.58
2019-03-30T09:58:44.495Z,36.92
2019-03-30T10:01:46.422Z,37.50
2019-03-30T10:04:48.353Z,37.46
2019-03-30T10:07:50.385Z,37.18
2019-03-30T10:10:52.335Z,37.60
2019-03-30T10:13:54.311Z,37.61
2019-03-30T10:16:57.509Z,36.95
2019-03-30T10:20:04.710Z,37.95
2019-03-30T10:23:04.527Z,38.91
2019-03-30T10:26:06.524Z,38.54
2019-03-30T10:29:08.723Z,38.48
2019-03-30T10:32:10.840Z,38.45
2019-03-30T10:35:12.943Z,39.67
2019-03-30T10:38:14.909Z,40.75
2019-03-30T10:41:16.840Z,40.15
2019-03-30T10:44:18.871Z,40.09
2019-03-30T10:47:20.858Z,41.52
2019-03-30T10:50:22.871Z,40.56
2019-03-30T10:53:24.741Z,40.43
2019-03-30T10:56:26.699Z,40.01
2019-03-30T10:59:28.606Z,40.05
2019-03-30T11:02:30.560Z,40.08
2019-03-30T11:05:32.488Z,39.64
2019-03-30T11:08:34.443Z,39.74
2019-03-30T11:11:36.411Z,39.31
2019-03-30T11:14:38.405Z,39.05
2019-03-30T11:17:40.369Z,38.98
2019-03-30T11:20:42.362Z,40.38
2019-03-30T11:23:45.485Z,38.43
2019-03-30T11:26:47.409Z,37.99
2019-03-30T11:29:49.321Z,38.44
2019-03-30T11:32:51.381Z,38.23
2019-03-30T11:35:53.466Z,37.89
2019-03-30T11:38:55.429Z,37.75
2019-03-30T11:41:58.557Z,37.57
2019-03-30T11:45:00.518Z,37.44
2019-03-30T11:48:02.399Z,37.52
2019-03-30T11:51:06.149Z,37.28
2019-03-30T11:54:08.060Z,37.42
2019-03-30T11:57:10.038Z,37.84
2019-03-30T12:00:12.170Z,37.56
2019-03-30T12:03:14.108Z,39.95
2019-03-30T12:06:16.039Z,38.42
2019-03-30T12:09:18.099Z,38.46
2019-03-30T12:12:20.039Z,38.16
2019-03-30T12:15:21.954Z,38.22
2019-03-30T12:18:23.856Z,37.90
2019-03-30T12:21:25.807Z,37.62
2019-03-30T12:24:27.739Z,38.21
2019-03-30T12:27:29.705Z,37.48
2019-03-30T12:30:31.576Z,39.05
2019-03-30T12:33:33.554Z,38.14
2019-03-30T12:36:35.705Z,36.84
2019-03-30T12:39:37.747Z,37.23
2019-03-30T12:42:39.640Z,37.59
2019-03-30T12:45:41.608Z,39.34
2019-03-30T12:48:43.549Z,38.15
2019-03-30T12:51:45.849Z,37.89
2019-03-30T12:54:47.731Z,37.85
2019-03-30T12:57:49.647Z,38.69
2019-03-30T13:00:54.619Z,38.86
2019-03-30T13:03:56.604Z,38.59
2019-03-30T13:06:58.550Z,38.46
2019-03-30T13:10:00.626Z,40.04
2019-03-30T13:13:02.528Z,39.74
2019-03-30T13:16:04.488Z,39.04
2019-03-30T13:19:06.408Z,39.63
2019-03-30T13:22:08.348Z,38.18
2019-03-30T13:25:10.223Z,38.24
2019-03-30T13:28:12.235Z,38.57
2019-03-30T13:31:14.125Z,37.86
2019-03-30T13:34:16.085Z,39.46
2019-03-30T13:37:20.043Z,38.55
2019-03-30T13:40:21.996Z,39.94
2019-03-30T13:43:23.862Z,38.94
2019-03-30T13:46:25.827Z,40.23
2019-03-30T13:49:29.632Z,38.27
2019-03-30T13:52:32.127Z,38.51
2019-03-30T13:55:34.027Z,39.21
2019-03-30T13:58:36.707Z,37.59
2019-03-30T14:01:39.008Z,38.30
2019-03-30T14:04:40.905Z,38.29
2019-03-30T14:07:44.611Z,39.08
2019-03-30T14:10:47.465Z,38.29
2019-03-30T14:13:49.386Z,38.75
2019-03-30T14:16:51.354Z,38.95
2019-03-30T14:19:53.254Z,39.60
2019-03-30T14:22:55.231Z,39.09
2019-03-30T14:25:57.107Z,38.27
2019-03-30T14:28:59.186Z,38.52
2019-03-30T14:32:01.122Z,39.17
2019-03-30T14:35:04.522Z,40.20
2019-03-30T14:38:06.549Z,39.24
2019-03-30T14:41:08.541Z,39.77
2019-03-30T14:44:10.421Z,39.72
2019-03-30T14:47:12.444Z,39.45
2019-03-30T14:50:14.320Z,40.11
2019-03-30T14:53:18.021Z,39.40
2019-03-30T14:56:20.026Z,39.41
2019-03-30T14:59:21.994Z,40.02
2019-03-30T15:02:23.933Z,40.44
2019-03-30T15:05:25.947Z,40.04
2019-03-30T15:08:27.895Z,40.93
2019-03-30T15:11:29.823Z,39.80
2019-03-30T15:14:31.697Z,40.13
2019-03-30T15:17:33.581Z,40.24
2019-03-30T15:20:35.537Z,40.46
2019-03-30T15:23:37.772Z,40.25
2019-03-30T15:26:39.659Z,42.50
2019-03-30T15:29:45.464Z,41.18
2019-03-30T15:32:46.650Z,41.26
2019-03-30T15:35:48.760Z,42.57
2019-03-30T15:38:50.838Z,42.02
2019-03-30T15:41:52.822Z,42.33
2019-03-30T15:44:54.738Z,42.91
2019-03-30T15:47:56.796Z,42.70
2019-03-30T15:50:59.916Z,43.42
2019-03-30T15:54:03.561Z,44.04
2019-03-30T15:57:13.880Z,44.10
2019-03-30T16:00:11.596Z,44.70
2019-03-30T16:03:13.498Z,45.11
2019-03-30T16:06:15.467Z,45.92
2019-03-30T16:09:17.400Z,46.93
2019-03-30T16:12:19.310Z,46.96
2019-03-30T16:15:21.160Z,46.21
2019-03-30T16:18:23.154Z,45.06
2019-03-30T16:21:25.067Z,43.88
2019-03-30T16:24:30.041Z,44.72
2019-03-30T16:27:30.881Z,45.00
2019-03-30T16:30:32.828Z,45.85
2019-03-30T16:33:34.776Z,45.98
2019-03-30T16:36:36.733Z,46.13
2019-03-30T16:39:38.823Z,45.92
2019-03-30T16:42:40.774Z,46.02
2019-03-30T16:45:42.723Z,46.99
2019-03-30T16:48:44.653Z,47.33
2019-03-30T16:51:46.583Z,46.74
2019-03-30T16:54:48.948Z,47.25
2019-03-30T16:57:51.787Z,47.67
2019-03-30T17:00:56.591Z,48.18
2019-03-30T17:03:57.640Z,48.95
2019-03-30T17:06:59.606Z,49.76
2019-03-30T17:10:05.837Z,50.29
2019-03-30T17:13:07.790Z,50.27
2019-03-30T17:16:09.872Z,50.27
2019-03-30T17:19:13.126Z,50.94
2019-03-30T17:22:15.032Z,50.52
2019-03-30T17:25:17.058Z,50.11
2019-03-30T17:28:18.946Z,49.82
2019-03-30T17:31:20.903Z,49.71
2019-03-30T17:34:22.784Z,49.50
2019-03-30T17:37:24.752Z,49.40
2019-03-30T17:40:26.734Z,49.67
2019-03-30T17:43:28.673Z,49.79
2019-03-30T17:46:30.579Z,50.56
2019-03-30T17:49:33.535Z,50.92
2019-03-30T17:52:35.477Z,51.69
2019-03-30T17:55:37.670Z,51.88
2019-03-30T17:58:39.582Z,52.11
2019-03-30T18:01:41.541Z,52.04
2019-03-30T18:04:43.434Z,52.00
2019-03-30T18:07:45.362Z,52.10
2019-03-30T18:10:47.514Z,52.20
2019-03-30T18:13:50.769Z,52.22
2019-03-30T18:16:52.626Z,52.34
2019-03-30T18:19:55.677Z,52.46
2019-03-30T18:22:59.407Z,52.72
2019-03-30T18:26:01.355Z,52.77
2019-03-30T18:29:03.352Z,52.67
2019-03-30T18:32:05.302Z,53.05
2019-03-30T18:35:07.557Z,53.37
2019-03-30T18:38:12.721Z,53.34
2019-03-30T18:41:14.186Z,53.09
2019-03-30T18:44:17.504Z,52.85
2019-03-30T18:47:19.486Z,52.12
2019-03-30T18:50:21.511Z,52.13
2019-03-30T18:53:23.581Z,51.59
2019-03-30T18:56:27.932Z,51.12
2019-03-30T18:59:30.040Z,50.88
2019-03-30T19:02:32.961Z,48.92
2019-03-30T19:05:34.889Z,49.14
2019-03-30T19:08:38.083Z,48.52
2019-03-30T19:11:41.598Z,48.13
2019-03-30T19:14:44.509Z,47.94
2019-03-30T19:17:46.409Z,47.37
2019-03-30T19:20:48.667Z,47.14
2019-03-30T19:23:52.967Z,46.59
2019-03-30T19:26:56.415Z,46.09
2019-03-30T19:29:59.678Z,45.35
2019-03-30T19:33:01.697Z,44.40
2019-03-30T19:36:10.182Z,43.89
2019-03-30T19:39:12.943Z,43.62
2019-03-30T19:42:15.949Z,43.74
2019-03-30T19:45:22.067Z,44.04
2019-03-30T19:48:25.467Z,44.14
2019-03-30T19:51:28.597Z,44.06
2019-03-30T19:54:31.814Z,43.72
2019-03-30T19:57:36.073Z,43.39
2019-03-30T20:00:38.921Z,43.35
2019-03-30T20:03:42.044Z,43.42
2019-03-30T20:06:45.876Z,43.53
2019-03-30T20:09:53.744Z,43.75
2019-03-30T20:12:58.117Z,44.07
2019-03-30T20:16:02.145Z,44.27
2019-03-30T20:19:12.213Z,44.66
2019-03-30T20:22:08.110Z,44.93
2019-03-30T20:25:12.521Z,45.02
2019-03-30T20:28:15.900Z,45.11
2019-03-30T20:31:18.587Z,45.16
2019-03-30T20:34:20.985Z,45.19
2019-03-30T20:37:24.683Z,45.50
2019-03-30T20:40:26.987Z,45.75
2019-03-30T20:43:29.020Z,45.94
2019-03-30T20:46:33.025Z,46.23
2019-03-30T20:49:36.762Z,46.51
2019-03-30T20:52:39.829Z,46.80
2019-03-30T20:55:42.274Z,46.96
2019-03-30T20:58:44.918Z,47.07
2019-03-30T21:01:49.836Z,47.27
2019-03-30T21:04:52.079Z,47.26
2019-03-30T21:07:55.102Z,47.18
2019-03-30T21:10:57.486Z,47.07
2019-03-30T21:13:59.914Z,47.19
2019-03-30T21:17:02.578Z,47.33
2019-03-30T21:20:06.833Z,47.75
2019-03-30T21:23:09.902Z,48.02
2019-03-30T21:26:14.302Z,48.25
2019-03-30T21:29:16.257Z,48.45
2019-03-30T21:32:18.208Z,48.75
2019-03-30T21:35:20.278Z,49.29
2019-03-30T21:38:22.182Z,49.94
2019-03-30T21:41:24.461Z,50.20
2019-03-30T21:44:26.749Z,50.19
2019-03-30T21:47:29.186Z,50.65
2019-03-30T21:50:31.058Z,51.08
2019-03-30T21:53:34.078Z,51.45
2019-03-30T21:56:36.018Z,51.74
2019-03-30T21:59:39.788Z,52.00
2019-03-30T22:02:41.653Z,52.22
2019-03-30T22:05:43.632Z,52.14
2019-03-30T22:08:46.895Z,52.13
2019-03-30T22:11:48.866Z,52.19
2019-03-30T22:14:50.811Z,52.34
2019-03-30T22:17:52.737Z,52.46
2019-03-30T22:20:54.616Z,52.80
2019-03-30T22:23:56.600Z,52.96
2019-03-30T22:26:58.495Z,53.08
2019-03-30T22:30:00.438Z,53.28
2019-03-30T22:33:02.343Z,53.68
2019-03-30T22:36:04.431Z,53.96
2019-03-30T22:39:06.602Z,54.05
2019-03-30T22:42:08.687Z,54.06
2019-03-30T22:45:11.133Z,54.10
2019-03-30T22:48:13.054Z,54.33
2019-03-30T22:51:15.034Z,54.42
2019-03-30T22:54:16.985Z,54.73
2019-03-30T22:57:18.873Z,54.48
2019-03-30T23:00:41.416Z,54.48
2019-03-30T23:03:45.242Z,54.30
2019-03-30T23:06:47.165Z,54.31
2019-03-30T23:09:49.063Z,54.58
2019-03-30T23:12:52.281Z,54.88
2019-03-30T23:18:55.656Z,55.09
2019-03-30T23:21:57.548Z,55.12
2019-03-30T23:24:59.508Z,55.01
2019-03-30T23:28:01.416Z,55.12
2019-03-30T23:31:03.379Z,55.13
2019-03-30T23:34:05.217Z,55.23
2019-03-30T23:37:07.155Z,55.55
2019-03-30T23:40:08.996Z,55.77
2019-03-30T23:43:10.860Z,55.77
2019-03-30T23:46:12.890Z,55.82
2019-03-30T23:49:14.824Z,56.28
2019-03-30T23:52:16.701Z,56.60
2019-03-30T23:55:18.591Z,56.68
2019-03-30T23:58:20.456Z,56.75
